sensor_id;sensor_type;location;lat;lon;timestamp;temperature;humidity
27781;DHT22;15167;1.318;103.762;2023-04-15T00:00:19;28.20;51.10
27781;DHT22;15167;1.318;103.762;2023-04-15T00:02:45;28.20;49.80
27781;DHT22;15167;1.318;103.762;2023-04-15T00:05:12;28.40;44.20
27781;DHT22;15167;1.318;103.762;2023-04-15T00:07:38;28.40;39.30
27781;DHT22;15167;1.318;103.762;2023-04-15T00:10:05;28.40;37.40
27781;DHT22;15167;1.318;103.762;2023-04-15T00:12:31;28.50;34.70
27781;DHT22;15167;1.318;103.762;2023-04-15T00:14:57;28.50;26.90
27781;DHT22;15167;1.318;103.762;2023-04-15T00:17:23;28.60;22.80
27781;DHT22;15167;1.318;103.762;2023-04-15T00:19:50;28.70;11.70
27781;DHT22;15167;1.318;103.762;2023-04-15T00:22:18;28.80;10.70
27781;DHT22;15167;1.318;103.762;2023-04-15T00:24:44;28.80;10.90
27781;DHT22;15167;1.318;103.762;2023-04-15T00:27:10;28.90;7.70
27781;DHT22;15167;1.318;103.762;2023-04-15T00:29:36;29.00;3.20
27781;DHT22;15167;1.318;103.762;2023-04-15T00:32:02;29.10;1.00
27781;DHT22;15167;1.318;103.762;2023-04-15T00:34:29;29.10;1.00
27781;DHT22;15167;1.318;103.762;2023-04-15T00:36:55;29.10;1.00
27781;DHT22;15167;1.318;103.762;2023-04-15T00:39:21;29.20;1.00
27781;DHT22;15167;1.318;103.762;2023-04-15T00:41:47;29.20;1.00
27781;DHT22;15167;1.318;103.762;2023-04-15T00:44:13;29.30;1.00
27781;DHT22;15167;1.318;103.762;2023-04-15T00:46:40;29.40;1.00
27781;DHT22;15167;1.318;103.762;2023-04-15T00:49:08;29.40;1.00
27781;DHT22;15167;1.318;103.762;2023-04-15T00:51:35;29.50;1.00
27781;DHT22;15167;1.318;103.762;2023-04-15T00:54:02;29.60;1.00
27781;DHT22;15167;1.318;103.762;2023-04-15T00:56:29;29.60;1.00
27781;DHT22;15167;1.318;103.762;2023-04-15T00:58:56;29.70;1.00
27781;DHT22;15167;1.318;103.762;2023-04-15T01:01:23;29.70;1.00
27781;DHT22;15167;1.318;103.762;2023-04-15T01:03:50;29.80;1.00
27781;DHT22;15167;1.318;103.762;2023-04-15T01:06:16;29.80;1.00
27781;DHT22;15167;1.318;103.762;2023-04-15T01:08:43;29.90;1.00
27781;DHT22;15167;1.318;103.762;2023-04-15T01:11:11;29.90;1.00
27781;DHT22;15167;1.318;103.762;2023-04-15T01:13:37;30.00;1.00
27781;DHT22;15167;1.318;103.762;2023-04-15T01:16:03;30.00;1.00
27781;DHT22;15167;1.318;103.762;2023-04-15T01:18:29;30.10;1.00
27781;DHT22;15167;1.318;103.762;2023-04-15T01:20:57;30.10;1.00
27781;DHT22;15167;1.318;103.762;2023-04-15T01:23:23;30.10;1.00
27781;DHT22;15167;1.318;103.762;2023-04-15T01:25:49;30.10;1.00
27781;DHT22;15167;1.318;103.762;2023-04-15T01:28:16;30.20;1.00
27781;DHT22;15167;1.318;103.762;2023-04-15T01:30:42;30.30;1.00
27781;DHT22;15167;1.318;103.762;2023-04-15T01:33:09;30.30;1.00
27781;DHT22;15167;1.318;103.762;2023-04-15T01:35:35;30.40;1.00
27781;DHT22;15167;1.318;103.762;2023-04-15T01:38:05;30.40;1.00
27781;DHT22;15167;1.318;103.762;2023-04-15T01:40:32;30.50;1.00
27781;DHT22;15167;1.318;103.762;2023-04-15T01:42:58;30.50;1.00
27781;DHT22;15167;1.318;103.762;2023-04-15T01:45:24;30.50;1.00
27781;DHT22;15167;1.318;103.762;2023-04-15T01:47:51;30.50;1.00
27781;DHT22;15167;1.318;103.762;2023-04-15T01:50:17;30.60;1.00
27781;DHT22;15167;1.318;103.762;2023-04-15T01:52:43;30.60;1.00
27781;DHT22;15167;1.318;103.762;2023-04-15T01:55:10;30.70;1.00
27781;DHT22;15167;1.318;103.762;2023-04-15T01:57:36;30.80;1.00
27781;DHT22;15167;1.318;103.762;2023-04-15T02:00:02;30.70;1.00
27781;DHT22;15167;1.318;103.762;2023-04-15T02:02:29;30.70;1.00
27781;DHT22;15167;1.318;103.762;2023-04-15T02:04:55;30.80;1.00
27781;DHT22;15167;1.318;103.762;2023-04-15T02:07:21;30.90;99.90
27781;DHT22;15167;1.318;103.762;2023-04-15T02:09:48;31.00;99.90
27781;DHT22;15167;1.318;103.762;2023-04-15T02:12:14;31.00;99.90
27781;DHT22;15167;1.318;103.762;2023-04-15T02:14:40;30.80;99.90
27781;DHT22;15167;1.318;103.762;2023-04-15T02:17:06;30.80;99.90
27781;DHT22;15167;1.318;103.762;2023-04-15T02:19:33;30.90;99.90
27781;DHT22;15167;1.318;103.762;2023-04-15T02:21:59;31.00;99.90
27781;DHT22;15167;1.318;103.762;2023-04-15T02:24:29;31.00;99.90
27781;DHT22;15167;1.318;103.762;2023-04-15T02:26:55;31.10;99.90
27781;DHT22;15167;1.318;103.762;2023-04-15T02:29:22;31.10;99.90
27781;DHT22;15167;1.318;103.762;2023-04-15T02:31:48;31.20;99.90
27781;DHT22;15167;1.318;103.762;2023-04-15T02:34:14;31.30;99.90
27781;DHT22;15167;1.318;103.762;2023-04-15T02:36:41;31.40;99.90
27781;DHT22;15167;1.318;103.762;2023-04-15T02:39:07;31.50;99.90
27781;DHT22;15167;1.318;103.762;2023-04-15T02:41:33;31.60;99.90
27781;DHT22;15167;1.318;103.762;2023-04-15T02:43:59;31.70;99.90
27781;DHT22;15167;1.318;103.762;2023-04-15T02:46:25;31.80;99.90
27781;DHT22;15167;1.318;103.762;2023-04-15T02:48:52;31.90;99.90
27781;DHT22;15167;1.318;103.762;2023-04-15T02:51:19;32.00;99.90
27781;DHT22;15167;1.318;103.762;2023-04-15T02:53:46;32.00;99.90
27781;DHT22;15167;1.318;103.762;2023-04-15T02:56:13;32.10;99.90
27781;DHT22;15167;1.318;103.762;2023-04-15T02:58:44;32.00;99.90
27781;DHT22;15167;1.318;103.762;2023-04-15T03:01:10;32.20;99.90
27781;DHT22;15167;1.318;103.762;2023-04-15T03:03:36;32.40;99.90
27781;DHT22;15167;1.318;103.762;2023-04-15T03:06:02;32.70;99.90
27781;DHT22;15167;1.318;103.762;2023-04-15T03:08:28;33.00;99.90
27781;DHT22;15167;1.318;103.762;2023-04-15T03:10:56;33.00;99.90
27781;DHT22;15167;1.318;103.762;2023-04-15T03:13:25;32.80;99.90
27781;DHT22;15167;1.318;103.762;2023-04-15T03:15:51;32.70;99.90
27781;DHT22;15167;1.318;103.762;2023-04-15T03:18:17;32.70;99.90
27781;DHT22;15167;1.318;103.762;2023-04-15T03:20:43;32.60;99.90
27781;DHT22;15167;1.318;103.762;2023-04-15T03:23:09;32.70;99.90
27781;DHT22;15167;1.318;103.762;2023-04-15T03:25:36;32.80;99.90
27781;DHT22;15167;1.318;103.762;2023-04-15T03:28:02;33.00;99.90
27781;DHT22;15167;1.318;103.762;2023-04-15T03:30:28;33.20;99.90
27781;DHT22;15167;1.318;103.762;2023-04-15T03:32:54;33.10;99.90
27781;DHT22;15167;1.318;103.762;2023-04-15T03:35:20;33.10;99.90
27781;DHT22;15167;1.318;103.762;2023-04-15T03:37:47;33.10;99.90
27781;DHT22;15167;1.318;103.762;2023-04-15T03:40:13;33.20;99.90
27781;DHT22;15167;1.318;103.762;2023-04-15T03:42:40;33.40;99.90
27781;DHT22;15167;1.318;103.762;2023-04-15T03:45:06;33.50;99.90
27781;DHT22;15167;1.318;103.762;2023-04-15T03:47:32;33.50;99.90
27781;DHT22;15167;1.318;103.762;2023-04-15T03:49:58;33.80;99.90
27781;DHT22;15167;1.318;103.762;2023-04-15T03:52:24;33.80;99.90
27781;DHT22;15167;1.318;103.762;2023-04-15T03:54:51;33.90;91.10
27781;DHT22;15167;1.318;103.762;2023-04-15T03:57:17;33.90;84.70
27781;DHT22;15167;1.318;103.762;2023-04-15T03:59:43;33.80;94.30
27781;DHT22;15167;1.318;103.762;2023-04-15T04:02:09;33.90;90.90
27781;DHT22;15167;1.318;103.762;2023-04-15T04:04:36;34.00;63.60
27781;DHT22;15167;1.318;103.762;2023-04-15T04:07:02;34.10;29.60
27781;DHT22;15167;1.318;103.762;2023-04-15T04:09:28;34.10;11.30
27781;DHT22;15167;1.318;103.762;2023-04-15T04:11:54;34.10;10.10
27781;DHT22;15167;1.318;103.762;2023-04-15T04:14:20;34.10;1.00
27781;DHT22;15167;1.318;103.762;2023-04-15T04:16:54;34.00;1.00
27781;DHT22;15167;1.318;103.762;2023-04-15T04:19:20;34.00;1.00
27781;DHT22;15167;1.318;103.762;2023-04-15T04:21:46;34.10;1.00
27781;DHT22;15167;1.318;103.762;2023-04-15T04:24:12;34.10;1.00
27781;DHT22;15167;1.318;103.762;2023-04-15T04:26:38;34.00;1.00
27781;DHT22;15167;1.318;103.762;2023-04-15T04:29:04;34.10;1.00
27781;DHT22;15167;1.318;103.762;2023-04-15T04:31:31;34.20;99.90
27781;DHT22;15167;1.318;103.762;2023-04-15T04:33:57;34.30;99.90
27781;DHT22;15167;1.318;103.762;2023-04-15T04:36:23;34.40;1.00
27781;DHT22;15167;1.318;103.762;2023-04-15T04:38:49;34.60;99.90
27781;DHT22;15167;1.318;103.762;2023-04-15T04:41:15;34.60;99.90
27781;DHT22;15167;1.318;103.762;2023-04-15T04:43:41;34.60;1.00
27781;DHT22;15167;1.318;103.762;2023-04-15T04:46:07;34.70;99.90
27781;DHT22;15167;1.318;103.762;2023-04-15T04:48:33;34.80;99.90
27781;DHT22;15167;1.318;103.762;2023-04-15T04:51:00;35.00;99.90
27781;DHT22;15167;1.318;103.762;2023-04-15T04:53:26;35.00;99.90
27781;DHT22;15167;1.318;103.762;2023-04-15T04:55:53;35.00;99.90
27781;DHT22;15167;1.318;103.762;2023-04-15T04:58:19;35.00;99.90
27781;DHT22;15167;1.318;103.762;2023-04-15T05:00:45;35.00;99.90
27781;DHT22;15167;1.318;103.762;2023-04-15T05:03:12;35.10;99.90
27781;DHT22;15167;1.318;103.762;2023-04-15T05:05:38;35.20;99.90
27781;DHT22;15167;1.318;103.762;2023-04-15T05:08:05;35.20;99.90
27781;DHT22;15167;1.318;103.762;2023-04-15T05:10:32;35.10;99.90
27781;DHT22;15167;1.318;103.762;2023-04-15T05:12:58;35.00;99.90
27781;DHT22;15167;1.318;103.762;2023-04-15T05:15:24;35.00;99.90
27781;DHT22;15167;1.318;103.762;2023-04-15T05:17:50;35.20;99.90
27781;DHT22;15167;1.318;103.762;2023-04-15T05:20:16;35.40;99.90
27781;DHT22;15167;1.318;103.762;2023-04-15T05:22:42;35.50;99.90
27781;DHT22;15167;1.318;103.762;2023-04-15T05:25:09;35.60;28.90
27781;DHT22;15167;1.318;103.762;2023-04-15T05:27:35;35.70;99.90
27781;DHT22;15167;1.318;103.762;2023-04-15T05:30:01;35.70;99.90
27781;DHT22;15167;1.318;103.762;2023-04-15T05:32:27;35.70;1.00
27781;DHT22;15167;1.318;103.762;2023-04-15T05:34:53;35.60;1.00
27781;DHT22;15167;1.318;103.762;2023-04-15T05:37:19;35.60;1.00
27781;DHT22;15167;1.318;103.762;2023-04-15T05:39:46;35.70;1.00
27781;DHT22;15167;1.318;103.762;2023-04-15T05:42:13;35.70;99.90
27781;DHT22;15167;1.318;103.762;2023-04-15T05:44:39;35.80;99.90
27781;DHT22;15167;1.318;103.762;2023-04-15T05:47:06;36.00;99.90
27781;DHT22;15167;1.318;103.762;2023-04-15T05:49:33;36.00;99.90
27781;DHT22;15167;1.318;103.762;2023-04-15T05:51:59;36.10;99.90
27781;DHT22;15167;1.318;103.762;2023-04-15T05:54:25;36.20;99.90
27781;DHT22;15167;1.318;103.762;2023-04-15T05:56:53;36.20;99.90
27781;DHT22;15167;1.318;103.762;2023-04-15T05:59:19;35.90;1.00
27781;DHT22;15167;1.318;103.762;2023-04-15T06:01:45;36.00;1.00
27781;DHT22;15167;1.318;103.762;2023-04-15T06:04:11;36.00;1.00
27781;DHT22;15167;1.318;103.762;2023-04-15T06:06:37;36.20;1.00
27781;DHT22;15167;1.318;103.762;2023-04-15T06:09:03;36.40;99.90
27781;DHT22;15167;1.318;103.762;2023-04-15T06:11:30;36.60;99.90
27781;DHT22;15167;1.318;103.762;2023-04-15T06:13:56;36.60;99.90
27781;DHT22;15167;1.318;103.762;2023-04-15T06:16:22;36.50;99.90
27781;DHT22;15167;1.318;103.762;2023-04-15T06:18:48;36.40;99.90
27781;DHT22;15167;1.318;103.762;2023-04-15T06:21:14;36.40;1.00
27781;DHT22;15167;1.318;103.762;2023-04-15T06:23:40;36.40;1.00
27781;DHT22;15167;1.318;103.762;2023-04-15T06:26:07;36.50;99.90
27781;DHT22;15167;1.318;103.762;2023-04-15T06:28:33;36.60;99.90
27781;DHT22;15167;1.318;103.762;2023-04-15T06:30:59;36.60;99.90
27781;DHT22;15167;1.318;103.762;2023-04-15T06:33:26;36.50;99.90
27781;DHT22;15167;1.318;103.762;2023-04-15T06:35:52;36.40;1.00
27781;DHT22;15167;1.318;103.762;2023-04-15T06:38:18;36.40;1.00
27781;DHT22;15167;1.318;103.762;2023-04-15T06:40:45;36.40;44.50
27781;DHT22;15167;1.318;103.762;2023-04-15T06:43:11;36.50;19.90
27781;DHT22;15167;1.318;103.762;2023-04-15T06:45:37;36.50;1.00
27781;DHT22;15167;1.318;103.762;2023-04-15T06:48:04;36.40;52.40
27781;DHT22;15167;1.318;103.762;2023-04-15T06:50:30;36.30;51.30
27781;DHT22;15167;1.318;103.762;2023-04-15T06:52:57;36.10;99.90
27781;DHT22;15167;1.318;103.762;2023-04-15T06:55:23;36.20;99.90
27781;DHT22;15167;1.318;103.762;2023-04-15T06:57:49;36.00;99.90
27781;DHT22;15167;1.318;103.762;2023-04-15T07:00:16;36.10;99.90
27781;DHT22;15167;1.318;103.762;2023-04-15T07:02:43;36.30;99.90
27781;DHT22;15167;1.318;103.762;2023-04-15T07:05:09;36.60;1.00
27781;DHT22;15167;1.318;103.762;2023-04-15T07:07:35;36.70;1.00
27781;DHT22;15167;1.318;103.762;2023-04-15T07:10:02;36.90;1.00
27781;DHT22;15167;1.318;103.762;2023-04-15T07:12:29;36.90;99.90
27781;DHT22;15167;1.318;103.762;2023-04-15T07:14:56;36.90;99.90
27781;DHT22;15167;1.318;103.762;2023-04-15T07:17:22;36.90;99.90
27781;DHT22;15167;1.318;103.762;2023-04-15T07:19:48;36.90;99.90
27781;DHT22;15167;1.318;103.762;2023-04-15T07:22:14;37.10;99.90
27781;DHT22;15167;1.318;103.762;2023-04-15T07:24:40;37.00;99.90
27781;DHT22;15167;1.318;103.762;2023-04-15T07:27:07;36.80;99.90
27781;DHT22;15167;1.318;103.762;2023-04-15T07:29:33;36.60;1.00
27781;DHT22;15167;1.318;103.762;2023-04-15T07:31:59;36.30;56.60
27781;DHT22;15167;1.318;103.762;2023-04-15T07:34:26;36.10;99.90
27781;DHT22;15167;1.318;103.762;2023-04-15T07:36:52;35.80;99.90
27781;DHT22;15167;1.318;103.762;2023-04-15T07:39:18;35.60;99.90
27781;DHT22;15167;1.318;103.762;2023-04-15T07:41:44;35.80;99.90
27781;DHT22;15167;1.318;103.762;2023-04-15T07:44:11;35.90;99.90
27781;DHT22;15167;1.318;103.762;2023-04-15T07:46:37;36.20;64.00
27781;DHT22;15167;1.318;103.762;2023-04-15T07:49:03;36.30;1.00
27781;DHT22;15167;1.318;103.762;2023-04-15T07:51:29;36.10;22.90
27781;DHT22;15167;1.318;103.762;2023-04-15T07:53:56;36.10;96.10
27781;DHT22;15167;1.318;103.762;2023-04-15T07:56:23;36.10;99.90
27781;DHT22;15167;1.318;103.762;2023-04-15T07:58:49;36.30;46.30
27781;DHT22;15167;1.318;103.762;2023-04-15T08:01:16;36.40;1.00
27781;DHT22;15167;1.318;103.762;2023-04-15T08:03:42;36.50;1.00
27781;DHT22;15167;1.318;103.762;2023-04-15T08:06:08;36.40;1.00
27781;DHT22;15167;1.318;103.762;2023-04-15T08:08:34;36.40;1.00
27781;DHT22;15167;1.318;103.762;2023-04-15T08:11:01;36.50;99.90
27781;DHT22;15167;1.318;103.762;2023-04-15T08:13:27;36.60;99.90
27781;DHT22;15167;1.318;103.762;2023-04-15T08:18:38;36.50;99.90
27781;DHT22;15167;1.318;103.762;2023-04-15T08:21:04;36.10;1.00
27781;DHT22;15167;1.318;103.762;2023-04-15T08:23:30;35.90;92.60
27781;DHT22;15167;1.318;103.762;2023-04-15T08:25:57;35.70;96.60
27781;DHT22;15167;1.318;103.762;2023-04-15T08:28:23;35.60;99.90
27781;DHT22;15167;1.318;103.762;2023-04-15T08:30:49;35.50;93.10
27781;DHT22;15167;1.318;103.762;2023-04-15T08:33:17;35.40;99.90
27781;DHT22;15167;1.318;103.762;2023-04-15T08:35:43;35.30;99.90
27781;DHT22;15167;1.318;103.762;2023-04-15T08:38:09;35.40;99.90
27781;DHT22;15167;1.318;103.762;2023-04-15T08:40:44;35.30;99.90
27781;DHT22;15167;1.318;103.762;2023-04-15T08:43:17;35.20;99.90
27781;DHT22;15167;1.318;103.762;2023-04-15T08:45:45;35.00;99.90
27781;DHT22;15167;1.318;103.762;2023-04-15T08:48:13;34.90;99.90
27781;DHT22;15167;1.318;103.762;2023-04-15T08:50:41;34.80;99.90
27781;DHT22;15167;1.318;103.762;2023-04-15T08:53:07;34.80;99.90
27781;DHT22;15167;1.318;103.762;2023-04-15T08:55:35;34.50;99.90
27781;DHT22;15167;1.318;103.762;2023-04-15T08:58:01;34.50;99.90
27781;DHT22;15167;1.318;103.762;2023-04-15T09:00:28;34.40;99.90
27781;DHT22;15167;1.318;103.762;2023-04-15T09:02:57;34.50;99.90
27781;DHT22;15167;1.318;103.762;2023-04-15T09:05:24;34.40;99.90
27781;DHT22;15167;1.318;103.762;2023-04-15T09:07:50;34.60;99.90
27781;DHT22;15167;1.318;103.762;2023-04-15T09:10:16;34.50;99.90
27781;DHT22;15167;1.318;103.762;2023-04-15T09:12:43;34.50;99.90
27781;DHT22;15167;1.318;103.762;2023-04-15T09:15:11;34.60;99.90
27781;DHT22;15167;1.318;103.762;2023-04-15T09:17:42;34.80;99.90
27781;DHT22;15167;1.318;103.762;2023-04-15T09:20:09;34.80;99.90
27781;DHT22;15167;1.318;103.762;2023-04-15T09:22:35;34.70;99.90
27781;DHT22;15167;1.318;103.762;2023-04-15T09:27:47;34.30;99.90
27781;DHT22;15167;1.318;103.762;2023-04-15T09:30:14;34.10;99.90
27781;DHT22;15167;1.318;103.762;2023-04-15T09:32:56;33.80;99.90
27781;DHT22;15167;1.318;103.762;2023-04-15T09:35:23;33.80;1.00
27781;DHT22;15167;1.318;103.762;2023-04-15T09:37:50;33.70;1.00
27781;DHT22;15167;1.318;103.762;2023-04-15T09:43:01;33.50;1.00
27781;DHT22;15167;1.318;103.762;2023-04-15T09:45:27;33.50;1.00
27781;DHT22;15167;1.318;103.762;2023-04-15T09:47:54;33.40;1.00
27781;DHT22;15167;1.318;103.762;2023-04-15T09:50:21;33.40;1.00
27781;DHT22;15167;1.318;103.762;2023-04-15T09:52:47;33.50;1.00
27781;DHT22;15167;1.318;103.762;2023-04-15T09:55:13;33.40;1.00
27781;DHT22;15167;1.318;103.762;2023-04-15T09:57:40;33.50;1.00
27781;DHT22;15167;1.318;103.762;2023-04-15T10:00:07;33.50;99.90
27781;DHT22;15167;1.318;103.762;2023-04-15T10:02:36;33.30;99.90
27781;DHT22;15167;1.318;103.762;2023-04-15T10:05:03;33.20;99.90
27781;DHT22;15167;1.318;103.762;2023-04-15T10:07:29;33.10;99.90
27781;DHT22;15167;1.318;103.762;2023-04-15T10:09:56;33.10;99.90
27781;DHT22;15167;1.318;103.762;2023-04-15T10:12:24;33.10;99.90
27781;DHT22;15167;1.318;103.762;2023-04-15T10:14:52;33.00;99.90
27781;DHT22;15167;1.318;103.762;2023-04-15T10:17:21;33.00;99.90
27781;DHT22;15167;1.318;103.762;2023-04-15T10:19:48;32.90;99.90
27781;DHT22;15167;1.318;103.762;2023-04-15T10:22:14;32.80;1.00
27781;DHT22;15167;1.318;103.762;2023-04-15T10:24:40;32.80;1.00
27781;DHT22;15167;1.318;103.762;2023-04-15T10:27:07;32.80;99.90
27781;DHT22;15167;1.318;103.762;2023-04-15T10:29:33;32.80;99.90
27781;DHT22;15167;1.318;103.762;2023-04-15T10:31:59;32.70;99.90
27781;DHT22;15167;1.318;103.762;2023-04-15T10:34:26;32.70;1.00
27781;DHT22;15167;1.318;103.762;2023-04-15T10:36:56;32.60;1.00
27781;DHT22;15167;1.318;103.762;2023-04-15T10:42:05;32.60;99.90
27781;DHT22;15167;1.318;103.762;2023-04-15T10:44:31;32.50;99.90
27781;DHT22;15167;1.318;103.762;2023-04-15T10:46:58;32.50;99.90
27781;DHT22;15167;1.318;103.762;2023-04-15T10:49:24;32.40;99.90
27781;DHT22;15167;1.318;103.762;2023-04-15T10:51:51;32.30;1.00
27781;DHT22;15167;1.318;103.762;2023-04-15T10:59:29;32.10;1.00
27781;DHT22;15167;1.318;103.762;2023-04-15T11:01:56;32.00;1.00
27781;DHT22;15167;1.318;103.762;2023-04-15T11:07:10;31.80;1.00
27781;DHT22;15167;1.318;103.762;2023-04-15T11:09:36;31.80;1.00
27781;DHT22;15167;1.318;103.762;2023-04-15T11:12:08;31.70;1.00
27781;DHT22;15167;1.318;103.762;2023-04-15T11:14:41;31.70;1.00
27781;DHT22;15167;1.318;103.762;2023-04-15T11:17:07;31.60;1.00
27781;DHT22;15167;1.318;103.762;2023-04-15T11:19:34;31.50;1.00
27781;DHT22;15167;1.318;103.762;2023-04-15T11:22:07;31.50;1.00
27781;DHT22;15167;1.318;103.762;2023-04-15T11:24:34;31.50;8.20
27781;DHT22;15167;1.318;103.762;2023-04-15T11:27:01;31.50;13.10
27781;DHT22;15167;1.318;103.762;2023-04-15T11:29:32;31.40;23.10
27781;DHT22;15167;1.318;103.762;2023-04-15T11:32:08;31.40;37.80
27781;DHT22;15167;1.318;103.762;2023-04-15T11:34:34;31.30;42.50
27781;DHT22;15167;1.318;103.762;2023-04-15T11:37:06;31.20;49.30
27781;DHT22;15167;1.318;103.762;2023-04-15T11:39:32;31.20;55.20
27781;DHT22;15167;1.318;103.762;2023-04-15T11:41:58;31.20;59.40
27781;DHT22;15167;1.318;103.762;2023-04-15T11:44:24;31.20;65.30
27781;DHT22;15167;1.318;103.762;2023-04-15T11:46:50;31.20;65.80
27781;DHT22;15167;1.318;103.762;2023-04-15T11:49:29;31.20;69.00
27781;DHT22;15167;1.318;103.762;2023-04-15T11:51:59;31.20;76.60
27781;DHT22;15167;1.318;103.762;2023-04-15T11:54:25;31.20;81.30
27781;DHT22;15167;1.318;103.762;2023-04-15T11:56:51;31.10;81.00
27781;DHT22;15167;1.318;103.762;2023-04-15T11:59:19;31.10;81.40
27781;DHT22;15167;1.318;103.762;2023-04-15T12:01:45;31.10;83.00
27781;DHT22;15167;1.318;103.762;2023-04-15T12:04:12;31.00;80.20
27781;DHT22;15167;1.318;103.762;2023-04-15T12:06:39;31.00;80.20
27781;DHT22;15167;1.318;103.762;2023-04-15T12:11:33;31.00;75.50
27781;DHT22;15167;1.318;103.762;2023-04-15T12:16:36;30.90;95.10
27781;DHT22;15167;1.318;103.762;2023-04-15T12:19:06;30.90;99.90
27781;DHT22;15167;1.318;103.762;2023-04-15T12:21:34;30.90;99.90
27781;DHT22;15167;1.318;103.762;2023-04-15T12:24:02;30.80;99.90
27781;DHT22;15167;1.318;103.762;2023-04-15T12:26:33;30.70;99.90
27781;DHT22;15167;1.318;103.762;2023-04-15T12:29:00;30.60;99.90
27781;DHT22;15167;1.318;103.762;2023-04-15T12:31:27;30.60;99.90
27781;DHT22;15167;1.318;103.762;2023-04-15T12:34:02;30.60;99.90
27781;DHT22;15167;1.318;103.762;2023-04-15T12:36:29;30.60;99.90
27781;DHT22;15167;1.318;103.762;2023-04-15T12:39:01;30.60;99.90
27781;DHT22;15167;1.318;103.762;2023-04-15T12:41:28;30.60;99.90
27781;DHT22;15167;1.318;103.762;2023-04-15T12:43:54;30.70;99.90
27781;DHT22;15167;1.318;103.762;2023-04-15T12:46:21;30.50;99.90
27781;DHT22;15167;1.318;103.762;2023-04-15T12:48:47;30.40;99.90
27781;DHT22;15167;1.318;103.762;2023-04-15T12:51:13;30.20;99.90
27781;DHT22;15167;1.318;103.762;2023-04-15T12:53:39;29.90;66.80
27781;DHT22;15167;1.318;103.762;2023-04-15T12:56:05;29.40;82.50
27781;DHT22;15167;1.318;103.762;2023-04-15T12:58:31;29.10;90.70
27781;DHT22;15167;1.318;103.762;2023-04-15T13:00:58;29.00;82.60
27781;DHT22;15167;1.318;103.762;2023-04-15T13:03:24;29.50;92.40
27781;DHT22;15167;1.318;103.762;2023-04-15T13:05:50;28.90;90.30
27781;DHT22;15167;1.318;103.762;2023-04-15T13:08:17;29.00;90.60
27781;DHT22;15167;1.318;103.762;2023-04-15T13:10:43;29.00;67.20
27781;DHT22;15167;1.318;103.762;2023-04-15T13:13:09;29.00;57.10
27781;DHT22;15167;1.318;103.762;2023-04-15T13:15:35;29.00;57.60
27781;DHT22;15167;1.318;103.762;2023-04-15T13:18:01;28.70;86.60
27781;DHT22;15167;1.318;103.762;2023-04-15T13:20:27;28.60;98.20
27781;DHT22;15167;1.318;103.762;2023-04-15T13:22:53;28.50;99.90
27781;DHT22;15167;1.318;103.762;2023-04-15T13:25:20;28.50;99.90
27781;DHT22;15167;1.318;103.762;2023-04-15T13:27:46;28.40;99.90
27781;DHT22;15167;1.318;103.762;2023-04-15T13:30:12;28.40;99.90
27781;DHT22;15167;1.318;103.762;2023-04-15T13:32:38;28.30;99.90
27781;DHT22;15167;1.318;103.762;2023-04-15T13:35:05;28.30;99.90
27781;DHT22;15167;1.318;103.762;2023-04-15T13:37:31;28.50;99.90
27781;DHT22;15167;1.318;103.762;2023-04-15T13:39:57;28.60;99.90
27781;DHT22;15167;1.318;103.762;2023-04-15T13:42:23;28.80;99.90
27781;DHT22;15167;1.318;103.762;2023-04-15T13:44:50;28.90;99.90
27781;DHT22;15167;1.318;103.762;2023-04-15T13:47:16;28.90;99.90
27781;DHT22;15167;1.318;103.762;2023-04-15T13:49:42;28.90;99.90
27781;DHT22;15167;1.318;103.762;2023-04-15T13:52:08;28.80;99.90
27781;DHT22;15167;1.318;103.762;2023-04-15T13:54:35;28.50;99.90
27781;DHT22;15167;1.318;103.762;2023-04-15T13:57:01;28.10;99.90
27781;DHT22;15167;1.318;103.762;2023-04-15T13:59:27;27.90;99.90
27781;DHT22;15167;1.318;103.762;2023-04-15T14:01:53;27.80;99.90
27781;DHT22;15167;1.318;103.762;2023-04-15T14:04:19;27.90;99.90
27781;DHT22;15167;1.318;103.762;2023-04-15T14:06:45;28.00;99.90
27781;DHT22;15167;1.318;103.762;2023-04-15T14:09:12;28.10;99.90
27781;DHT22;15167;1.318;103.762;2023-04-15T14:11:38;28.30;99.90
27781;DHT22;15167;1.318;103.762;2023-04-15T14:14:05;28.50;99.90
27781;DHT22;15167;1.318;103.762;2023-04-15T14:16:31;28.60;99.90
27781;DHT22;15167;1.318;103.762;2023-04-15T14:18:58;28.60;99.90
27781;DHT22;15167;1.318;103.762;2023-04-15T14:21:24;28.60;99.90
27781;DHT22;15167;1.318;103.762;2023-04-15T14:23:54;28.60;99.90
27781;DHT22;15167;1.318;103.762;2023-04-15T14:26:20;28.60;99.90
27781;DHT22;15167;1.318;103.762;2023-04-15T14:28:47;28.60;99.90
27781;DHT22;15167;1.318;103.762;2023-04-15T14:31:13;28.50;99.90
27781;DHT22;15167;1.318;103.762;2023-04-15T14:33:39;28.30;99.90
27781;DHT22;15167;1.318;103.762;2023-04-15T14:36:06;28.30;99.90
27781;DHT22;15167;1.318;103.762;2023-04-15T14:38:35;28.40;99.90
27781;DHT22;15167;1.318;103.762;2023-04-15T14:41:04;28.40;99.90
27781;DHT22;15167;1.318;103.762;2023-04-15T14:43:31;28.50;99.90
27781;DHT22;15167;1.318;103.762;2023-04-15T14:45:57;28.60;99.90
27781;DHT22;15167;1.318;103.762;2023-04-15T14:48:24;28.60;99.90
27781;DHT22;15167;1.318;103.762;2023-04-15T14:50:50;28.70;99.90
27781;DHT22;15167;1.318;103.762;2023-04-15T14:53:16;28.80;99.90
27781;DHT22;15167;1.318;103.762;2023-04-15T14:55:42;28.80;99.90
27781;DHT22;15167;1.318;103.762;2023-04-15T14:58:09;28.90;99.90
27781;DHT22;15167;1.318;103.762;2023-04-15T15:00:37;28.90;99.90
27781;DHT22;15167;1.318;103.762;2023-04-15T15:03:05;28.90;99.90
27781;DHT22;15167;1.318;103.762;2023-04-15T15:05:37;28.80;99.90
27781;DHT22;15167;1.318;103.762;2023-04-15T15:08:05;28.90;99.80
27781;DHT22;15167;1.318;103.762;2023-04-15T15:10:32;28.90;98.80
27781;DHT22;15167;1.318;103.762;2023-04-15T15:12:58;28.90;99.90
27781;DHT22;15167;1.318;103.762;2023-04-15T15:15:24;28.90;99.90
27781;DHT22;15167;1.318;103.762;2023-04-15T15:17:50;28.80;99.90
27781;DHT22;15167;1.318;103.762;2023-04-15T15:20:16;28.80;99.90
27781;DHT22;15167;1.318;103.762;2023-04-15T15:22:43;28.70;99.90
27781;DHT22;15167;1.318;103.762;2023-04-15T15:25:09;28.80;99.90
27781;DHT22;15167;1.318;103.762;2023-04-15T15:27:36;28.80;97.30
27781;DHT22;15167;1.318;103.762;2023-04-15T15:30:02;28.90;93.50
27781;DHT22;15167;1.318;103.762;2023-04-15T15:32:28;28.90;88.50
27781;DHT22;15167;1.318;103.762;2023-04-15T15:34:54;28.90;91.40
27781;DHT22;15167;1.318;103.762;2023-04-15T15:37:20;28.90;89.20
27781;DHT22;15167;1.318;103.762;2023-04-15T15:39:47;29.00;84.10